createdAt,value
2023-04-08T00:04:58.193Z,97.79
2023-04-08T00:10:00.665Z,100.00
2023-04-08T00:15:05.718Z,100.00
2023-04-08T00:20:08.938Z,100.00
2023-04-08T00:25:12.022Z,100.00
2023-04-08T00:30:17.678Z,100.00
2023-04-08T00:35:21.321Z,100.00
2023-04-08T00:40:24.119Z,100.00
2023-04-08T00:45:26.768Z,100.00
2023-04-08T00:50:33.951Z,100.00
2023-04-08T00:55:36.528Z,100.00
2023-04-08T01:00:46.066Z,100.00
2023-04-08T01:06:04.885Z,100.00
2023-04-08T01:11:13.420Z,100.00
2023-04-08T01:16:18.441Z,100.00
2023-04-08T01:21:29.247Z,100.00
2023-04-08T01:26:38.666Z,100.00
2023-04-08T01:31:43.319Z,100.00
2023-04-08T01:36:48.144Z,100.00
2023-04-08T01:41:54.088Z,100.00
2023-04-08T01:46:57.792Z,100.00
2023-04-08T01:52:02.388Z,100.00
2023-04-08T01:57:09.482Z,100.00
2023-04-08T02:02:13.363Z,100.00
2023-04-08T02:07:19.307Z,100.00
2023-04-08T02:12:24.042Z,100.00
2023-04-08T02:17:47.961Z,100.00
2023-04-08T02:23:15.341Z,100.00
2023-04-08T02:28:20.354Z,100.00
2023-04-08T02:33:24.003Z,100.00
2023-04-08T02:38:31.111Z,100.00
2023-04-08T02:43:36.675Z,100.00
2023-04-08T02:48:41.908Z,100.00
2023-04-08T02:53:47.072Z,100.00
2023-04-08T02:58:49.856Z,100.00
2023-04-08T03:03:52.896Z,100.00
2023-04-08T03:08:55.612Z,100.00
2023-04-08T03:13:59.482Z,100.00
2023-04-08T03:19:01.807Z,100.00
2023-04-08T03:24:04.452Z,100.00
2023-04-08T03:29:10.644Z,100.00
2023-04-08T03:34:17.245Z,100.00
2023-04-08T03:39:22.908Z,100.00
2023-04-08T03:44:27.953Z,100.00
2023-04-08T03:49:32.937Z,100.00
2023-04-08T03:54:35.553Z,100.00
2023-04-08T03:59:40.074Z,100.00
2023-04-08T04:04:42.512Z,100.00
2023-04-08T04:09:44.959Z,100.00
2023-04-08T04:14:47.492Z,100.00
2023-04-08T04:19:50.003Z,100.00
2023-04-08T04:24:54.386Z,100.00
2023-04-08T04:30:00.390Z,100.00
2023-04-08T04:35:05.622Z,100.00
2023-04-08T04:40:09.341Z,100.00
2023-04-08T04:45:12.786Z,100.00
2023-04-08T04:50:18.230Z,100.00
2023-04-08T04:55:23.741Z,100.00
2023-04-08T05:00:27.961Z,100.00
2023-04-08T05:05:31.800Z,100.00
2023-04-08T05:10:34.622Z,100.00
2023-04-08T05:15:40.888Z,100.00
2023-04-08T05:20:44.026Z,100.00
2023-04-08T05:25:47.021Z,100.00
2023-04-08T05:30:53.593Z,97.56
2023-04-08T05:35:58.094Z,95.50
2023-04-08T05:41:03.108Z,96.33
2023-04-08T05:46:10.173Z,96.35
2023-04-08T05:51:19.358Z,97.13
2023-04-08T05:56:24.837Z,95.69
2023-04-08T06:01:28.174Z,93.65
2023-04-08T06:06:31.050Z,92.14
2023-04-08T06:11:36.180Z,90.28
2023-04-08T06:16:42.873Z,88.32
2023-04-08T06:21:48.037Z,87.46
2023-04-08T06:26:51.196Z,86.23
2023-04-08T06:31:54.421Z,83.08
2023-04-08T06:37:00.032Z,80.33
2023-04-08T06:42:05.410Z,80.86
2023-04-08T06:47:31.740Z,79.41
2023-04-08T06:52:34.707Z,78.71
2023-04-08T06:57:38.089Z,78.02
2023-04-08T07:02:41.405Z,75.67
2023-04-08T07:07:46.878Z,72.50
2023-04-08T07:12:49.696Z,71.35
2023-04-08T07:17:52.791Z,69.11
2023-04-08T07:22:55.715Z,64.87
2023-04-08T07:28:09.892Z,65.89
2023-04-08T07:33:12.939Z,64.08
2023-04-08T07:38:16.411Z,61.07
2023-04-08T07:43:19.400Z,58.84
2023-04-08T07:48:22.141Z,57.76
2023-04-08T07:53:26.805Z,58.25
2023-04-08T07:58:29.925Z,56.50
2023-04-08T08:03:34.150Z,54.35
2023-04-08T08:08:40.307Z,52.24
2023-04-08T08:13:43.399Z,49.63
2023-04-08T08:18:46.350Z,46.88
2023-04-08T08:23:51.227Z,45.89
2023-04-08T08:28:54.610Z,45.08
2023-04-08T08:33:56.956Z,42.82
2023-04-08T08:39:05.855Z,43.71
2023-04-08T08:44:10.778Z,42.49
2023-04-08T08:49:16.343Z,43.52
2023-04-08T08:54:19.374Z,44.10
2023-04-08T08:59:25.297Z,45.08
2023-04-08T09:04:28.410Z,42.99
2023-04-08T09:09:49.450Z,42.30
2023-04-08T09:14:52.487Z,43.47
2023-04-08T09:20:13.147Z,43.09
2023-04-08T09:25:35.320Z,43.38
2023-04-08T09:30:39.326Z,43.18
2023-04-08T09:35:44.434Z,41.69
2023-04-08T09:40:47.351Z,41.09
2023-04-08T09:45:53.502Z,41.08
2023-04-08T09:50:58.267Z,40.98
2023-04-08T09:56:02.756Z,39.05
2023-04-08T10:01:09.078Z,41.01
2023-04-08T10:06:12.947Z,40.06
2023-04-08T10:11:18.484Z,40.80
2023-04-08T10:16:33.833Z,37.46
2023-04-08T10:21:48.502Z,36.23
2023-04-08T10:26:53.824Z,34.53
2023-04-08T10:32:00.590Z,33.95
2023-04-08T10:37:04.207Z,34.73
2023-04-08T10:42:09.136Z,35.44
2023-04-08T10:47:15.941Z,36.63
2023-04-08T10:52:20.639Z,37.10
2023-04-08T10:57:29.438Z,40.05
2023-04-08T11:02:39.105Z,39.51
2023-04-08T11:07:45.933Z,39.93
2023-04-08T11:12:50.708Z,41.11
2023-04-08T11:17:59.746Z,42.12
2023-04-08T11:23:03.613Z,41.97
2023-04-08T11:28:10.091Z,41.98
2023-04-08T11:33:19.621Z,43.52
2023-04-08T11:38:30.281Z,55.52
2023-04-08T11:43:37.001Z,64.17
2023-04-08T11:48:41.558Z,54.04
2023-04-08T11:53:48.466Z,62.58
2023-04-08T11:58:54.602Z,60.65
2023-04-08T12:04:05.099Z,75.23
2023-04-08T12:09:10.121Z,66.84
2023-04-08T12:14:13.082Z,61.43
2023-04-08T12:19:15.977Z,64.86
2023-04-08T12:24:18.797Z,65.43
2023-04-08T12:29:21.853Z,64.79
2023-04-08T12:34:32.534Z,67.32
2023-04-08T12:39:34.812Z,69.20
2023-04-08T12:44:37.686Z,68.84
2023-04-08T12:54:49.230Z,75.12
2023-04-08T12:59:51.971Z,77.14
2023-04-08T13:04:55.625Z,79.64
2023-04-08T13:10:01.620Z,82.86
2023-04-08T13:15:08.323Z,85.56
2023-04-08T13:20:12.032Z,87.08
2023-04-08T13:25:15.278Z,91.70
2023-04-08T13:30:18.126Z,91.82
2023-04-08T13:35:24.394Z,93.85
2023-04-08T13:40:28.410Z,96.36
2023-04-08T13:45:31.428Z,100.00
2023-04-08T13:50:44.081Z,100.00
2023-04-08T13:55:47.404Z,100.00
2023-04-08T14:00:52.011Z,100.00
2023-04-08T14:05:55.153Z,100.00
2023-04-08T14:11:00.935Z,100.00
2023-04-08T14:16:05.660Z,100.00
2023-04-08T14:21:08.598Z,100.00
2023-04-08T14:26:12.016Z,100.00
2023-04-08T14:31:15.109Z,100.00
2023-04-08T14:36:24.526Z,100.00
2023-04-08T14:41:30.102Z,98.70
2023-04-08T14:46:32.887Z,95.29
2023-04-08T14:51:38.163Z,100.00
2023-04-08T14:56:41.851Z,88.79
2023-04-08T15:01:45.413Z,91.60
2023-04-08T15:06:48.391Z,85.34
2023-04-08T15:11:51.001Z,89.37
2023-04-08T15:16:53.918Z,87.99
2023-04-08T15:21:57.288Z,81.65
2023-04-08T15:27:02.280Z,79.33
2023-04-08T15:32:04.975Z,84.21
2023-04-08T15:37:07.614Z,98.47
2023-04-08T15:42:10.448Z,100.00
2023-04-08T15:47:13.254Z,100.00
2023-04-08T15:52:15.986Z,100.00
2023-04-08T15:57:18.692Z,100.00
2023-04-08T16:02:21.838Z,100.00
2023-04-08T16:07:24.586Z,100.00
2023-04-08T16:12:27.243Z,100.00
2023-04-08T16:17:30.017Z,100.00
2023-04-08T16:22:32.366Z,100.00
2023-04-08T16:27:35.183Z,100.00
2023-04-08T16:32:37.913Z,100.00
2023-04-08T16:37:40.934Z,100.00
2023-04-08T16:42:43.226Z,100.00
2023-04-08T16:47:46.344Z,100.00
2023-04-08T16:52:50.153Z,100.00
2023-04-08T16:57:53.158Z,100.00
2023-04-08T17:02:57.794Z,100.00
2023-04-08T17:08:00.792Z,100.00
2023-04-08T17:13:05.534Z,100.00
2023-04-08T17:18:08.411Z,100.00
2023-04-08T17:23:11.413Z,100.00
2023-04-08T17:28:14.818Z,100.00
2023-04-08T17:33:17.050Z,100.00
2023-04-08T17:38:19.942Z,100.00
2023-04-08T17:43:22.656Z,100.00
2023-04-08T17:48:25.938Z,100.00
2023-04-08T17:53:28.680Z,100.00
2023-04-08T17:58:31.605Z,100.00
2023-04-08T18:03:34.677Z,100.00
2023-04-08T18:08:37.485Z,100.00
2023-04-08T18:13:39.667Z,100.00
2023-04-08T18:18:42.362Z,100.00
2023-04-08T18:23:47.340Z,100.00
2023-04-08T18:28:50.218Z,100.00
2023-04-08T18:33:52.937Z,100.00
2023-04-08T18:38:56.006Z,100.00
2023-04-08T18:44:01.247Z,100.00
2023-04-08T18:49:04.007Z,100.00
2023-04-08T18:54:06.709Z,100.00
2023-04-08T18:59:12.454Z,100.00
2023-04-08T19:04:16.142Z,100.00
2023-04-08T19:09:18.898Z,100.00
2023-04-08T19:14:22.906Z,100.00
2023-04-08T19:19:25.732Z,100.00
2023-04-08T19:24:29.429Z,100.00
2023-04-08T19:29:34.545Z,100.00
2023-04-08T19:34:40.971Z,100.00
2023-04-08T19:39:43.845Z,100.00
2023-04-08T19:44:50.231Z,100.00
2023-04-08T19:49:53.135Z,100.00
2023-04-08T19:54:55.698Z,100.00
2023-04-08T19:59:58.772Z,100.00
2023-04-08T20:05:02.390Z,100.00
2023-04-08T20:10:08.025Z,100.00
2023-04-08T20:15:23.659Z,100.00
2023-04-08T20:20:29.980Z,100.00
2023-04-08T20:25:33.020Z,100.00
2023-04-08T20:30:35.854Z,100.00
2023-04-08T20:35:38.608Z,100.00
2023-04-08T20:40:44.977Z,100.00
2023-04-08T20:45:47.361Z,100.00
2023-04-08T20:50:53.121Z,100.00
2023-04-08T20:55:59.101Z,100.00
2023-04-08T21:01:01.935Z,100.00
2023-04-08T21:06:05.214Z,100.00
2023-04-08T21:11:07.725Z,100.00
2023-04-08T21:16:10.670Z,100.00
2023-04-08T21:21:13.470Z,100.00
2023-04-08T21:26:16.398Z,100.00
2023-04-08T21:31:19.225Z,100.00
2023-04-08T21:36:22.121Z,100.00
2023-04-08T21:41:26.447Z,100.00
2023-04-08T21:46:30.778Z,100.00
2023-04-08T21:51:41.847Z,100.00
2023-04-08T21:56:44.978Z,100.00
2023-04-08T22:01:48.272Z,100.00
2023-04-08T22:06:51.975Z,100.00
2023-04-08T22:11:54.630Z,100.00
2023-04-08T22:16:57.657Z,100.00
2023-04-08T22:22:02.749Z,100.00
2023-04-08T22:27:06.005Z,100.00
2023-04-08T22:32:11.619Z,100.00
2023-04-08T22:37:16.711Z,100.00
2023-04-08T22:42:19.713Z,100.00
2023-04-08T22:47:22.952Z,100.00
2023-04-08T22:52:31.686Z,100.00
2023-04-08T22:57:35.092Z,100.00
2023-04-08T23:02:38.411Z,100.00
2023-04-08T23:07:41.800Z,100.00
2023-04-08T23:12:46.811Z,100.00
2023-04-08T23:17:49.654Z,100.00
2023-04-08T23:22:54.942Z,100.00
2023-04-08T23:27:57.775Z,100.00
2023-04-08T23:33:00.804Z,100.00
2023-04-08T23:38:09.922Z,100.00
2023-04-08T23:43:12.789Z,100.00
2023-04-08T23:48:15.562Z,100.00
2023-04-08T23:53:21.758Z,100.00
2023-04-08T23:58:24.738Z,100.00
